aviador You're here:

KTVR Decoded Metar

TALLULAH/VICKSBU in LA, USA
Report Time2018-04-23 22:53:00
UTC Time2018-04-23 23:07:16
Flight Rules vfr VFR
WindCalm
Visibility9999 m
Phenomena:N/A
Clouds:Few 028 Hf
Overcast 041 Hf
Expected CloudBase > 1,600 ft AGL from Temp-Dew spread
Ceiling4,100 ft
Temp17°C (ISA +2)
Dew Point13°C (77% RH)
QNH1014 hPa
Density Alt509 ft
Elevation85 ft
Report Wrong Elevation
Raw Report
KTVR 232253Z AUTO 00000KT 10SM FEW028 OVC041 17/13 A2994 RMK AO2
SLP146 T01720133=

Extra information for KTVR:More info

Metar Taf Metar & Taf Last 4 Metars F.Rules Stats Wind Profile Meteogram Temp Stats Airport Information Weather charts Add Link Nearby VenuesMetar ALERT Operation Metar Decoded Social comments

AIRNAV info for KTVR